Time;durP1;ratioP1;P1;durP2;ratioP2;P2;SDS_P1;SDS_P2;PMS_P1;PMS_P2;Temp;Humidity;BMP_temperature;BMP_pressure;BME280_temperature;BME280_humidity;BME280_pressure;Samples;Min_cycle;Max_cycle;Signal;HPM_P1;HPM_P2
2022/08/17 00:01:31;;;;;;;5.47;4.38;;;18.20;99.90;;;;;;6199998;23;20044;-88
2022/08/17 00:04:18;;;;;;;6.50;4.63;;;18.30;99.90;;;;;;6183167;23;20024;-90
2022/08/17 00:06:45;;;;;;;5.90;4.50;;;18.30;99.90;;;;;;6174008;23;20044;-88
2022/08/17 00:09:15;;;;;;;3.88;3.47;;;18.40;99.90;;;;;;6173847;23;20024;-89
2022/08/17 00:11:45;;;;;;;5.00;4.20;;;18.40;99.90;;;;;;6167041;23;20032;-89
2022/08/17 00:14:32;;;;;;;3.70;3.13;;;18.40;99.90;;;;;;6177444;23;20107;-88
2022/08/17 00:16:59;;;;;;;4.35;3.22;;;18.40;99.90;;;;;;6165080;23;20020;-88
2022/08/17 00:19:26;;;;;;;3.35;2.80;;;18.50;99.90;;;;;;6164552;23;20020;-87
2022/08/17 00:21:56;;;;;;;3.75;2.90;;;18.50;99.90;;;;;;6166700;23;20016;-89
2022/08/17 00:24:46;;;;;;;3.65;2.67;;;18.50;99.90;;;;;;6179768;23;20111;-89
2022/08/17 00:27:13;;;;;;;2.92;2.40;;;18.50;99.90;;;;;;6166645;23;20020;-88
2022/08/17 00:29:41;;;;;;;3.05;2.42;;;18.50;99.90;;;;;;6165611;23;20070;-90
2022/08/17 00:40:14;;;;;;;2.10;1.60;;;18.60;99.90;;;;;;6229877;22;20218;-86
2022/08/17 00:42:42;;;;;;;2.38;2.10;;;18.60;99.90;;;;;;6189085;23;20020;-84
2022/08/17 00:45:11;;;;;;;2.55;2.13;;;18.60;99.90;;;;;;6163912;23;20016;-88
2022/08/17 00:47:39;;;;;;;2.53;2.10;;;18.60;99.90;;;;;;6159525;23;20034;-84
2022/08/17 00:50:07;;;;;;;1.75;1.65;;;18.60;99.90;;;;;;6161887;23;20135;-84
2022/08/17 00:55:09;;;;;;;1.50;1.40;;;18.60;99.90;;;;;;6222707;22;20060;-83
2022/08/17 00:57:42;;;;;;;2.20;1.60;;;18.70;99.90;;;;;;6159527;23;20142;-82
2022/08/17 01:00:18;;;;;;;2.00;1.80;;;18.70;99.90;;;;;;6157720;23;20031;-83
2022/08/17 01:02:45;;;;;;;2.15;1.80;;;18.70;99.90;;;;;;6182587;23;20027;-82
2022/08/17 01:05:24;;;;;;;2.28;2.08;;;18.60;99.90;;;;;;6182230;23;20028;-83
2022/08/17 01:07:51;;;;;;;1.90;1.70;;;18.60;99.90;;;;;;6157821;23;20173;-82
2022/08/17 01:10:25;;;;;;;1.52;1.42;;;18.70;99.90;;;;;;6182482;23;20044;-82
2022/08/17 01:13:12;;;;;;;1.80;1.65;;;18.60;99.90;;;;;;6191843;23;20066;-82
2022/08/17 01:15:41;;;;;;;1.88;1.63;;;18.60;99.90;;;;;;6206964;23;20347;-82
2022/08/17 01:18:12;;;;;;;1.63;1.52;;;18.60;99.90;;;;;;6161646;23;20098;-83
2022/08/17 01:20:51;;;;;;;1.75;1.65;;;18.50;99.90;;;;;;6182490;23;20024;-82
2022/08/17 01:23:20;;;;;;;2.10;1.90;;;18.50;99.90;;;;;;6182706;23;20455;-82
2022/08/17 01:25:49;;;;;;;2.15;1.95;;;18.40;99.90;;;;;;6207918;23;20335;-82
2022/08/17 01:28:16;;;;;;;2.03;1.83;;;18.40;99.90;;;;;;6158865;23;20027;-83
2022/08/17 01:31:07;;;;;;;1.98;1.70;;;18.30;99.90;;;;;;6189731;22;20048;-91
2022/08/17 01:33:35;;;;;;;1.98;1.77;;;18.20;99.90;;;;;;6212901;23;20099;-93
2022/08/17 01:36:03;;;;;;;1.98;1.63;;;18.20;99.90;;;;;;6168573;23;20020;-92
2022/08/17 01:38:31;;;;;;;2.10;1.90;;;18.10;99.90;;;;;;6166909;23;20018;-90
2022/08/17 01:41:04;;;;;;;2.08;1.88;;;18.20;99.90;;;;;;6167906;23;20340;-91
2022/08/17 01:43:44;;;;;;;2.35;2.10;;;18.10;99.90;;;;;;6167941;23;20022;-92
2022/08/17 01:54:32;;;;;;;1.90;1.70;;;17.90;99.90;;;;;;6217435;22;20024;-86
2022/08/17 01:56:59;;;;;;;1.90;1.70;;;17.90;99.90;;;;;;6163785;23;20099;-86
2022/08/17 01:59:26;;;;;;;2.38;2.15;;;17.90;99.90;;;;;;6190820;23;20039;-86
2022/08/17 02:01:53;;;;;;;2.30;2.10;;;17.80;99.90;;;;;;6166121;23;20364;-88
2022/08/17 02:04:20;;;;;;;2.60;2.33;;;17.80;99.90;;;;;;6170246;23;20023;-88
2022/08/17 02:06:47;;;;;;;2.55;2.15;;;17.70;99.90;;;;;;6171275;23;20066;-89
2022/08/17 02:09:23;;;;;;;;;;;17.70;99.90;;;;;;6176326;23;20015;-88
2022/08/17 02:11:53;;;;;;;2.03;1.83;;;17.70;99.90;;;;;;6196942;23;19942;-88
2022/08/17 02:14:20;;;;;;;2.47;2.28;;;17.60;99.90;;;;;;6169743;23;20039;-87
2022/08/17 02:16:47;;;;;;;2.50;1.85;;;17.60;99.90;;;;;;6167836;23;20489;-89
2022/08/17 02:19:14;;;;;;;2.63;2.20;;;17.60;99.90;;;;;;6169539;23;20012;-87
2022/08/17 02:21:43;;;;;;;2.22;1.95;;;17.60;99.90;;;;;;6168135;23;20056;-88
2022/08/17 02:24:12;;;;;;;2.30;2.08;;;17.50;99.90;;;;;;6168747;23;20013;-88
2022/08/17 02:26:39;;;;;;;2.88;2.28;;;17.50;99.90;;;;;;6192703;23;20016;-87
2022/08/17 02:29:06;;;;;;;2.30;2.10;;;17.40;99.90;;;;;;6168155;23;20016;-87
2022/08/17 02:31:34;;;;;;;2.70;2.50;;;17.40;99.90;;;;;;6166580;23;20101;-88
2022/08/17 02:34:02;;;;;;;2.85;2.35;;;17.40;99.90;;;;;;6167915;23;20012;-87
2022/08/17 02:36:33;;;;;;;2.65;2.45;;;17.40;99.90;;;;;;6167993;23;20082;-88
2022/08/17 02:39:04;;;;;;;2.30;1.92;;;17.30;99.90;;;;;;6166979;23;20016;-88
2022/08/17 02:41:31;;;;;;;2.90;2.42;;;17.40;99.90;;;;;;6167378;23;20455;-87
2022/08/17 02:43:58;;;;;;;2.72;2.42;;;17.40;99.90;;;;;;6167378;23;20026;-87
2022/08/17 02:46:25;;;;;;;2.25;2.05;;;17.40;99.90;;;;;;6165681;23;20020;-86
2022/08/17 02:48:52;;;;;;;2.60;2.40;;;17.40;99.90;;;;;;6168028;23;20020;-89
2022/08/17 02:51:19;;;;;;;2.40;2.20;;;17.40;99.90;;;;;;6166935;23;20062;-86
2022/08/17 02:53:46;;;;;;;2.53;1.90;;;17.50;99.90;;;;;;6168103;23;20024;-87
2022/08/17 02:56:13;;;;;;;2.25;1.98;;;17.50;99.90;;;;;;6169649;23;20031;-88
2022/08/17 02:58:40;;;;;;;2.97;1.98;;;17.50;99.90;;;;;;6196329;23;20474;-88
2022/08/17 03:01:08;;;;;;;2.58;2.13;;;17.50;99.90;;;;;;6170559;23;20020;-87
2022/08/17 03:03:36;;;;;;;2.13;1.92;;;17.50;99.90;;;;;;6170623;23;20016;-87
2022/08/17 03:06:03;;;;;;;2.45;2.22;;;17.50;99.90;;;;;;6171098;23;20023;-87
2022/08/17 03:08:30;;;;;;;2.53;2.33;;;17.50;99.90;;;;;;6170246;23;20016;-88
2022/08/17 03:10:57;;;;;;;2.55;2.20;;;17.40;99.90;;;;;;6171399;23;20039;-88
2022/08/17 03:13:24;;;;;;;2.30;2.10;;;17.40;99.90;;;;;;6168391;23;20312;-87
2022/08/17 03:15:51;;;;;;;2.33;2.13;;;17.40;99.90;;;;;;6168234;23;20023;-87
2022/08/17 03:18:19;;;;;;;2.55;2.35;;;17.40;99.90;;;;;;6167962;23;20351;-87
2022/08/17 03:20:52;;;;;;;;;;;17.40;99.90;;;;;;6171525;23;20020;-87
2022/08/17 03:23:20;;;;;;;2.25;2.05;;;17.30;99.90;;;;;;6192055;23;19915;-87
2022/08/17 03:25:50;;;;;;;2.22;2.00;;;17.20;99.90;;;;;;6170915;23;20606;-87
2022/08/17 03:28:19;;;;;;;2.70;2.22;;;17.20;99.90;;;;;;6171113;23;20419;-87
2022/08/17 03:30:46;;;;;;;3.10;2.35;;;17.10;99.90;;;;;;6169095;23;20043;-87
2022/08/17 03:33:13;;;;;;;2.60;2.40;;;17.10;99.90;;;;;;6168743;23;20012;-89
2022/08/17 03:35:40;;;;;;;2.30;2.10;;;17.10;99.90;;;;;;6169247;23;20319;-87
2022/08/17 03:38:08;;;;;;;2.35;1.80;;;17.10;99.90;;;;;;6168715;23;20066;-88
2022/08/17 03:40:36;;;;;;;2.83;2.53;;;17.10;99.90;;;;;;6169770;23;20046;-89
2022/08/17 03:43:23;;;;;;;3.20;2.72;;;17.10;99.90;;;;;;6181688;23;20324;-87
2022/08/17 03:57:12;;;;;;;2.40;2.17;;;17.00;99.90;;;;;;6198846;23;20020;-87
2022/08/17 03:59:39;;;;;;;2.80;2.50;;;17.10;99.90;;;;;;6165781;23;20030;-87
2022/08/17 04:02:18;;;;;;;2.70;2.40;;;17.10;99.90;;;;;;6166430;23;20020;-87
2022/08/17 04:04:49;;;;;;;2.67;2.30;;;17.10;99.90;;;;;;6167439;23;20178;-87
2022/08/17 04:07:18;;;;;;;2.85;2.55;;;17.10;99.90;;;;;;6168870;23;20024;-87
2022/08/17 04:09:45;;;;;;;2.60;2.17;;;17.10;99.90;;;;;;6165786;23;20077;-87
2022/08/17 04:12:14;;;;;;;2.40;2.20;;;17.00;99.90;;;;;;6166493;23;20026;-87
2022/08/17 04:14:41;;;;;;;2.72;2.47;;;17.00;99.90;;;;;;6166383;23;20024;-88
2022/08/17 04:17:21;;;;;;;2.33;2.13;;;17.00;99.90;;;;;;6175892;23;20044;-86
2022/08/17 04:19:48;;;;;;;2.08;1.88;;;17.00;99.90;;;;;;6168146;23;20078;-87
2022/08/17 04:22:15;;;;;;;2.40;2.00;;;16.90;99.90;;;;;;6169131;23;20034;-88
2022/08/17 04:25:08;;;;;;;3.22;2.65;;;16.90;99.90;;;;;;6187084;23;20016;-88
2022/08/17 04:27:35;;;;;;;2.47;2.28;;;16.80;99.90;;;;;;6170350;23;20051;-85
2022/08/17 04:30:02;;;;;;;2.55;2.25;;;16.80;99.90;;;;;;6168367;23;20028;-87
2022/08/17 04:32:30;;;;;;;2.47;2.28;;;16.80;99.90;;;;;;6168275;23;20074;-87
2022/08/17 04:35:24;;;;;;;3.10;2.40;;;16.80;99.90;;;;;;6181565;23;20032;-88
2022/08/17 04:37:51;;;;;;;3.15;2.85;;;16.80;99.90;;;;;;6170641;23;20533;-88
2022/08/17 04:43:09;;;;;;;3.22;2.92;;;16.60;99.90;;;;;;6202042;23;20016;-87
2022/08/17 04:45:43;;;;;;;3.05;2.75;;;16.60;99.90;;;;;;6171008;23;20024;-88
2022/08/17 04:48:24;;;;;;;2.60;2.40;;;16.60;99.90;;;;;;6176197;23;20016;-86
2022/08/17 04:51:03;;;;;;;2.08;1.88;;;16.60;99.90;;;;;;6175164;23;20024;-87
2022/08/17 04:53:31;;;;;;;2.10;1.90;;;16.70;99.90;;;;;;6169050;23;20036;-88
2022/08/17 04:55:58;;;;;;;2.55;2.35;;;16.80;99.90;;;;;;6168016;23;20020;-87
2022/08/17 04:58:25;;;;;;;2.45;2.25;;;16.90;99.90;;;;;;6168291;23;20494;-89
2022/08/17 05:00:52;;;;;;;2.70;2.47;;;17.00;99.90;;;;;;6167552;23;20016;-88
2022/08/17 05:03:19;;;;;;;2.38;2.17;;;17.00;99.90;;;;;;6166713;23;20455;-90
2022/08/17 05:05:48;;;;;;;2.10;1.80;;;17.00;99.90;;;;;;6167229;23;20024;-89
2022/08/17 05:08:17;;;;;;;2.03;1.83;;;17.00;99.90;;;;;;6169163;23;20036;-87
2022/08/17 05:10:44;;;;;;;2.47;2.28;;;17.00;99.90;;;;;;6169755;23;20126;-87
2022/08/17 05:13:16;;;;;;;2.28;2.08;;;16.90;99.90;;;;;;6166535;23;20047;-87
2022/08/17 05:15:44;;;;;;;2.45;2.15;;;16.90;99.90;;;;;;6165163;23;20027;-88
2022/08/17 05:18:14;;;;;;;2.72;2.33;;;16.90;99.90;;;;;;6167023;23;20024;-85
2022/08/17 05:20:41;;;;;;;2.75;2.55;;;16.80;99.90;;;;;;6165100;23;20102;-87
2022/08/17 05:23:10;;;;;;;2.47;2.28;;;16.80;99.90;;;;;;6165317;23;20098;-87
2022/08/17 05:25:48;;;;;;;2.45;2.25;;;16.80;99.90;;;;;;6166102;23;20016;-86
2022/08/17 05:28:17;;;;;;;3.13;2.83;;;16.80;99.90;;;;;;6168770;23;20103;-86
2022/08/17 05:30:49;;;;;;;;;;;16.90;99.90;;;;;;6169599;23;20020;-88
2022/08/17 05:33:21;;;;;;;3.22;2.42;;;16.80;99.90;;;;;;6190030;23;19919;-86
2022/08/17 05:35:50;;;;;;;2.55;2.35;;;16.90;99.90;;;;;;6166343;23;20043;-86
2022/08/17 05:38:18;;;;;;;2.13;1.92;;;16.90;99.90;;;;;;6166272;23;20034;-86
2022/08/17 05:40:45;;;;;;;3.00;2.70;;;16.90;99.90;;;;;;6165323;23;20024;-86
2022/08/17 05:43:17;;;;;;;2.15;1.92;;;16.90;99.90;;;;;;6168300;23;20098;-90
2022/08/17 05:45:53;;;;;;;2.35;2.05;;;16.90;99.90;;;;;;6194651;23;20022;-89
2022/08/17 05:48:23;;;;;;;3.00;2.70;;;17.00;99.90;;;;;;6220004;23;20020;-89
2022/08/17 05:51:30;;;;;;;2.55;2.30;;;17.00;99.90;;;;;;6181196;23;20031;-94
2022/08/17 05:53:59;;;;;;;2.83;2.30;;;17.00;99.90;;;;;;6223049;23;20026;-88
2022/08/17 05:56:42;;;;;;;3.00;2.70;;;17.00;99.90;;;;;;6225668;23;20481;-86
2022/08/17 05:59:12;;;;;;;2.58;2.38;;;17.10;99.90;;;;;;6218627;23;20024;-87
2022/08/17 06:02:14;;;;;;;2.78;2.47;;;17.10;99.90;;;;;;6216516;23;20054;-88
2022/08/17 06:04:59;;;;;;;2.28;2.08;;;17.20;99.90;;;;;;6169676;23;20336;-87
2022/08/17 06:07:42;;;;;;;3.13;2.40;;;17.20;99.90;;;;;;6215595;23;20558;-87
2022/08/17 06:10:35;;;;;;;2.80;2.30;;;17.30;99.90;;;;;;6192445;23;20032;-87
2022/08/17 06:13:23;;;;;;;;;;;17.30;99.90;;;;;;6168861;23;20016;-87
2022/08/17 06:16:00;;;;;;;2.10;1.90;;;17.40;99.90;;;;;;6142584;23;19926;-87
2022/08/17 06:18:30;;;;;;;2.80;2.30;;;17.40;99.90;;;;;;6189102;23;20572;-87
2022/08/17 06:21:00;;;;;;;2.78;2.38;;;17.50;99.90;;;;;;6163281;23;20027;-86
2022/08/17 06:23:40;;;;;;;3.00;2.65;;;17.60;99.90;;;;;;6165020;23;20082;-90
2022/08/17 06:26:33;;;;;;;3.60;3.03;;;17.70;99.90;;;;;;6171919;23;20422;-86
2022/08/17 06:29:14;;;;;;;2.83;2.47;;;17.80;99.90;;;;;;6179114;23;20171;-91
2022/08/17 06:31:44;;;;;;;2.90;2.60;;;17.90;99.90;;;;;;6224994;23;20051;-94
2022/08/17 06:34:11;;;;;;;2.75;2.50;;;18.00;99.90;;;;;;6178174;23;20030;-90
2022/08/17 06:37:00;;;;;;;2.92;2.63;;;18.00;99.90;;;;;;6175328;23;20024;-90
2022/08/17 06:39:54;;;;;;;3.38;2.83;;;18.10;99.90;;;;;;6223532;23;20012;-93
2022/08/17 06:42:43;;;;;;;3.55;3.25;;;18.30;99.90;;;;;;6201960;23;20031;-91
2022/08/17 06:45:35;;;;;;;4.10;3.60;;;18.40;99.90;;;;;;6233113;23;20177;-90
2022/08/17 06:48:23;;;;;;;5.15;4.65;;;18.60;99.90;;;;;;6178868;23;20363;-88
2022/08/17 06:50:58;;;;;;;7.70;6.95;;;18.80;99.90;;;;;;6199484;23;20020;-91
2022/08/17 06:53:44;;;;;;;6.32;5.72;;;19.00;99.90;;;;;;6174393;23;20043;-88
2022/08/17 06:56:34;;;;;;;7.70;6.88;;;19.10;99.90;;;;;;6175234;23;20046;-92
2022/08/17 06:59:32;;;;;;;7.60;6.90;;;19.30;99.90;;;;;;6210027;23;20032;-90
2022/08/17 07:02:27;;;;;;;8.52;7.72;;;19.50;99.90;;;;;;6188742;23;20348;-93
2022/08/17 07:05:15;;;;;;;8.65;7.85;;;19.60;99.90;;;;;;6206215;23;20020;-89
2022/08/17 07:08:02;;;;;;;7.68;6.97;;;19.60;99.90;;;;;;6175550;23;20020;-93
2022/08/17 07:10:43;;;;;;;7.30;6.60;;;19.70;99.90;;;;;;6208657;23;20095;-87
2022/08/17 07:13:13;;;;;;;7.93;7.22;;;19.80;99.90;;;;;;6179022;23;20134;-87
2022/08/17 07:15:43;;;;;;;7.93;7.22;;;19.90;99.90;;;;;;6200992;23;20020;-89
2022/08/17 07:18:11;;;;;;;7.18;6.47;;;19.90;99.90;;;;;;6176978;23;20123;-88
2022/08/17 07:20:41;;;;;;;6.88;6.28;;;19.90;99.90;;;;;;6171169;23;20351;-87
2022/08/17 07:23:37;;;;;;;6.20;5.47;;;19.90;99.90;;;;;;6165922;23;20028;-88
2022/08/17 07:26:05;;;;;;;5.85;5.35;;;20.00;99.90;;;;;;6190500;23;20438;-87
2022/08/17 07:28:32;;;;;;;4.80;4.35;;;20.00;99.90;;;;;;6164578;23;20023;-87
2022/08/17 07:30:59;;;;;;;4.70;4.30;;;20.10;99.90;;;;;;6164039;23;20019;-88
2022/08/17 07:33:28;;;;;;;5.65;5.15;;;20.20;99.90;;;;;;6164529;23;20016;-87
2022/08/17 07:35:56;;;;;;;6.95;6.35;;;20.20;99.90;;;;;;6164835;23;20103;-87
2022/08/17 07:38:31;;;;;;;6.30;5.80;;;20.20;99.90;;;;;;6165536;23;20012;-89
2022/08/17 07:41:05;;;;;;;6.30;5.70;;;20.30;99.90;;;;;;6165776;23;20073;-89
2022/08/17 07:43:38;;;;;;;6.15;5.65;;;20.50;99.90;;;;;;6165457;23;20515;-88
2022/08/17 07:48:53;;;;;;;5.57;5.07;;;20.80;99.90;;;;;;6241166;23;20289;-88
2022/08/17 07:51:36;;;;;;;6.75;6.15;;;20.90;99.90;;;;;;6166960;23;20362;-91
2022/08/17 07:54:22;;;;;;;6.90;6.30;;;20.90;99.90;;;;;;6169931;23;20023;-96
2022/08/17 07:56:52;;;;;;;5.72;5.22;;;20.80;99.90;;;;;;6198493;23;20128;-87
2022/08/17 07:59:23;;;;;;;8.75;7.95;;;20.90;99.90;;;;;;6197411;23;20017;-88
2022/08/17 08:01:56;;;;;;;10.95;9.98;;;20.90;99.90;;;;;;6190917;23;20035;-88
2022/08/17 08:04:38;;;;;;;9.55;8.65;;;20.80;99.90;;;;;;6214332;23;20383;-91
2022/08/17 08:07:49;;;;;;;7.18;6.47;;;20.80;99.90;;;;;;6181781;23;20118;-89
2022/08/17 08:10:28;;;;;;;9.30;8.40;;;20.80;99.90;;;;;;6197236;23;20032;-91
2022/08/17 08:13:24;;;;;;;10.13;9.27;;;20.80;99.90;;;;;;6216978;23;20012;-89
2022/08/17 08:15:53;;;;;;;9.15;8.25;;;21.00;99.90;;;;;;6169803;23;20054;-89
2022/08/17 08:18:31;;;;;;;8.13;7.32;;;21.30;99.90;;;;;;6167955;23;20078;-88
2022/08/17 08:21:24;;;;;;;8.27;7.53;;;21.50;99.90;;;;;;6201192;23;20412;-88
2022/08/17 08:24:08;;;;;;;12.57;11.38;;;21.70;99.90;;;;;;6194158;23;20016;-88
2022/08/17 08:26:45;;;;;;;10.52;9.52;;;21.60;99.90;;;;;;6218622;23;20158;-90
2022/08/17 08:30:07;;;;;;;13.75;12.45;;;21.70;99.90;;;;;;6220330;23;20024;-90
2022/08/17 08:32:46;;;;;;;13.38;12.07;;;21.80;99.90;;;;;;6074074;23;20125;-89
2022/08/17 08:35:29;;;;;;;11.60;10.40;;;21.70;99.90;;;;;;6215322;23;20020;-90
2022/08/17 08:38:34;;;;;;;11.43;10.15;;;21.60;99.90;;;;;;6167625;23;20051;-88
2022/08/17 08:41:59;;;;;;;9.40;8.40;;;21.60;99.90;;;;;;6194998;23;20223;-89
2022/08/17 08:44:53;;;;;;;7.55;6.78;;;21.50;99.90;;;;;;6077632;23;20113;-90
2022/08/17 08:47:34;;;;;;;11.05;9.95;;;21.50;99.90;;;;;;6203155;23;20028;-90
2022/08/17 08:50:16;;;;;;;8.93;8.00;;;21.50;99.90;;;;;;6199040;23;20023;-88
2022/08/17 08:53:20;;;;;;;7.60;6.80;;;21.60;99.90;;;;;;6201143;23;20363;-88
2022/08/17 08:56:20;;;;;;;7.45;6.75;;;21.80;99.90;;;;;;6192697;23;20288;-89
2022/08/17 08:59:02;;;;;;;7.28;6.50;;;21.90;99.90;;;;;;6185039;23;20062;-89
2022/08/17 09:02:03;;;;;;;6.45;5.80;;;22.00;99.90;;;;;;6215915;23;20012;-89
2022/08/17 09:05:06;;;;;;;6.50;5.90;;;22.20;99.90;;;;;;6202621;23;20004;-87
2022/08/17 09:07:50;;;;;;;9.40;8.50;;;22.30;99.90;;;;;;6222617;23;20020;-89
2022/08/17 09:10:48;;;;;;;8.25;7.45;;;22.20;99.90;;;;;;6170555;23;20027;-87
2022/08/17 09:13:15;;;;;;;9.20;8.35;;;22.30;99.90;;;;;;6190329;23;20020;-87
2022/08/17 09:15:45;;;;;;;7.97;7.18;;;22.30;99.90;;;;;;6214522;23;20070;-87
2022/08/17 09:18:32;;;;;;;6.97;6.38;;;22.30;99.90;;;;;;6165058;23;20024;-88
2022/08/17 09:21:53;;;;;;;7.30;6.60;;;22.40;99.90;;;;;;6184938;23;20034;-91
2022/08/17 09:24:33;;;;;;;7.43;6.72;;;22.50;99.90;;;;;;6197710;23;20026;-93
2022/08/17 09:27:01;;;;;;;7.55;6.88;;;22.60;99.90;;;;;;6196416;23;20466;-89
2022/08/17 09:29:33;;;;;;;7.25;6.65;;;22.80;99.90;;;;;;6194405;23;20051;-91
2022/08/17 09:32:17;;;;;;;8.70;7.90;;;23.00;99.90;;;;;;6169345;23;20012;-90
2022/08/17 09:34:50;;;;;;;;;;;23.10;99.90;;;;;;6195693;23;20099;-89
2022/08/17 09:37:38;;;;;;;10.23;9.23;;;23.20;99.90;;;;;;6194947;23;19916;-88
2022/08/17 09:40:20;;;;;;;7.07;6.47;;;23.10;99.90;;;;;;6193897;23;20024;-89
2022/08/17 09:43:07;;;;;;;8.30;7.60;;;23.20;99.90;;;;;;6169288;23;20358;-88
2022/08/17 09:45:37;;;;;;;12.63;11.38;;;23.20;99.90;;;;;;6198438;23;20083;-93
2022/08/17 09:48:19;;;;;;;11.38;10.27;;;23.00;99.90;;;;;;6222019;23;20031;-90
2022/08/17 09:50:58;;;;;;;9.00;8.15;;;23.00;99.90;;;;;;6171851;23;20024;-90
2022/08/17 09:53:35;;;;;;;8.98;8.18;;;23.00;99.90;;;;;;6197031;23;20087;-89
2022/08/17 09:56:37;;;;;;;8.02;7.30;;;23.00;99.90;;;;;;6113584;23;1346468;-92
2022/08/17 09:59:20;;;;;;;6.55;5.95;;;23.00;99.90;;;;;;6197053;23;20016;-88
2022/08/17 10:01:54;;;;;;;5.43;4.93;;;23.10;99.90;;;;;;6222141;23;20024;-91
2022/08/17 10:04:50;;;;;;;4.90;4.50;;;23.20;99.90;;;;;;6197551;23;20498;-88
2022/08/17 10:07:26;;;;;;;5.90;5.40;;;23.60;99.90;;;;;;6202576;23;20490;-91
2022/08/17 10:10:13;;;;;;;6.40;5.80;;;23.80;99.90;;;;;;6177225;23;20043;-90
2022/08/17 10:13:09;;;;;;;4.50;4.15;;;24.00;99.90;;;;;;6227936;23;20045;-91
2022/08/17 10:15:40;;;;;;;5.03;4.63;;;24.40;99.90;;;;;;6178133;23;20347;-92
2022/08/17 10:18:20;;;;;;;4.70;4.30;;;24.70;99.90;;;;;;6224109;23;20424;-90
2022/08/17 10:26:53;;;;;;;4.82;4.43;;;25.30;99.90;;;;;;6223100;23;20020;-89
2022/08/17 10:29:59;;;;;;;3.70;3.40;;;25.40;99.90;;;;;;6172578;23;20078;-90
2022/08/17 10:32:48;;;;;;;4.50;4.03;;;25.30;99.90;;;;;;6075908;23;20034;-89
2022/08/17 10:35:24;;;;;;;4.85;4.45;;;25.10;99.90;;;;;;6199396;23;20020;-88
2022/08/17 10:38:31;;;;;;;4.45;4.13;;;25.00;99.90;;;;;;6201010;23;20051;-88
2022/08/17 10:41:18;;;;;;;4.60;4.20;;;24.90;99.90;;;;;;6223091;23;20016;-88
2022/08/17 10:44:06;;;;;;;4.85;4.45;;;24.80;99.90;;;;;;6178074;23;20459;-90
2022/08/17 10:47:09;;;;;;;4.85;4.45;;;24.70;99.90;;;;;;6212153;23;20021;-92
2022/08/17 10:49:38;;;;;;;5.03;4.63;;;24.80;99.90;;;;;;6204516;23;20016;-87
2022/08/17 10:52:26;;;;;;;4.78;4.38;;;24.80;99.90;;;;;;6179080;23;20095;-88
2022/08/17 10:55:16;;;;;;;4.68;4.28;;;25.00;99.90;;;;;;6221625;23;20320;-90
2022/08/17 10:57:46;;;;;;;3.72;3.42;;;25.10;99.90;;;;;;6197252;23;20055;-90
2022/08/17 11:00:28;;;;;;;4.07;3.78;;;25.10;99.90;;;;;;6195682;23;20184;-90
2022/08/17 11:02:56;;;;;;;5.60;5.10;;;25.20;99.90;;;;;;6221744;23;20038;-90
2022/08/17 11:05:49;;;;;;;4.70;4.30;;;25.20;99.90;;;;;;6169322;23;20019;-91
2022/08/17 11:08:25;;;;;;;5.03;4.63;;;25.40;99.90;;;;;;6194132;23;20077;-90
2022/08/17 11:11:18;;;;;;;8.38;7.57;;;25.60;99.90;;;;;;6192645;23;20021;-88
2022/08/17 11:14:06;;;;;;;6.95;6.32;;;25.50;99.90;;;;;;6193177;23;20106;-91
2022/08/17 11:16:52;;;;;;;5.13;4.65;;;25.50;99.90;;;;;;6220429;23;20021;-88
2022/08/17 11:19:37;;;;;;;4.00;3.60;;;25.80;99.90;;;;;;6196043;23;20025;-90
2022/08/17 11:22:37;;;;;;;5.38;4.95;;;26.20;99.90;;;;;;6194727;23;20039;-93
2022/08/17 11:25:14;;;;;;;4.78;4.28;;;26.20;99.90;;;;;;6197869;23;20099;-87
2022/08/17 11:27:41;;;;;;;4.07;3.78;;;26.00;99.90;;;;;;6179546;23;20005;-87
2022/08/17 11:30:11;;;;;;;4.10;3.80;;;26.00;99.90;;;;;;6175148;23;20034;-89
2022/08/17 11:32:41;;;;;;;3.85;3.55;;;26.00;99.90;;;;;;6174424;23;20021;-88
2022/08/17 11:35:19;;;;;;;4.68;3.58;;;26.00;99.90;;;;;;6198555;23;20021;-92
2022/08/17 11:38:01;;;;;;;3.13;2.83;;;26.20;99.90;;;;;;6223305;23;20031;-89
2022/08/17 11:40:56;;;;;;;3.72;3.42;;;26.40;99.90;;;;;;6198657;23;20021;-89
2022/08/17 11:43:49;;;;;;;2.63;2.42;;;26.30;99.90;;;;;;6177518;23;20016;-91
2022/08/17 11:52:45;;;;;;;3.55;3.25;;;26.20;99.90;;;;;;6205956;23;20321;-91
2022/08/17 11:55:34;;;;;;;3.15;2.85;;;26.00;99.90;;;;;;6176547;23;20024;-92
2022/08/17 11:58:29;;;;;;;3.22;2.92;;;25.90;99.90;;;;;;6187905;23;20075;-92
2022/08/17 12:00:58;;;;;;;2.88;2.55;;;25.90;99.90;;;;;;6226352;23;20012;-95
2022/08/17 12:03:35;;;;;;;3.28;2.97;;;25.80;99.90;;;;;;6177360;23;20028;-93
2022/08/17 12:06:23;;;;;;;3.17;2.75;;;25.70;99.90;;;;;;6228530;23;20451;-91
2022/08/17 12:09:05;;;;;;;2.78;2.58;;;25.80;99.90;;;;;;6229533;23;20043;-88
2022/08/17 12:11:40;;;;;;;2.72;2.53;;;25.80;99.90;;;;;;6180813;23;20029;-91
2022/08/17 12:14:28;;;;;;;3.78;3.47;;;25.90;99.90;;;;;;6230301;23;20060;-89
2022/08/17 12:17:27;;;;;;;3.78;3.38;;;25.80;99.90;;;;;;6187133;23;20139;-89
2022/08/17 12:20:32;;;;;;;3.13;2.83;;;25.80;99.90;;;;;;6194380;23;20086;-88
2022/08/17 12:23:14;;;;;;;3.45;3.15;;;25.80;99.90;;;;;;6166738;23;20016;-88
2022/08/17 12:25:57;;;;;;;3.15;2.85;;;25.80;99.90;;;;;;6187358;23;20020;-87
2022/08/17 12:28:44;;;;;;;3.83;3.53;;;25.90;99.90;;;;;;6164758;23;20397;-88
2022/08/17 12:31:19;;;;;;;4.07;3.67;;;25.90;99.90;;;;;;6163798;23;20403;-88
2022/08/17 12:33:46;;;;;;;3.40;3.10;;;25.80;99.90;;;;;;6165921;23;20099;-88
2022/08/17 12:36:15;;;;;;;4.35;3.95;;;25.90;99.90;;;;;;6190624;23;20389;-89
2022/08/17 12:38:51;;;;;;;3.70;3.40;;;25.70;99.90;;;;;;6165975;23;20321;-88
2022/08/17 12:41:30;;;;;;;4.68;3.53;;;25.70;99.90;;;;;;6166827;23;20228;-88
2022/08/17 12:44:02;;;;;;;3.03;2.80;;;25.70;99.90;;;;;;6191200;23;20017;-86
2022/08/17 12:46:44;;;;;;;3.97;3.65;;;25.70;99.90;;;;;;6191865;23;20023;-89
2022/08/17 12:49:31;;;;;;;3.03;2.80;;;25.70;99.90;;;;;;6169405;23;20079;-88
2022/08/17 12:52:09;;;;;;;3.30;3.00;;;25.70;99.90;;;;;;6209125;23;20016;-87
2022/08/17 12:54:58;;;;;;;2.92;2.67;;;25.70;99.90;;;;;;6195305;23;20089;-88
2022/08/17 12:57:32;;;;;;;2.70;2.50;;;25.70;99.90;;;;;;6198881;23;20374;-88
2022/08/17 13:00:11;;;;;;;2.45;2.25;;;25.80;99.90;;;;;;6170741;23;20482;-88
2022/08/17 13:02:42;;;;;;;2.45;2.25;;;25.80;99.90;;;;;;6191499;23;20035;-88
2022/08/17 13:05:34;;;;;;;3.20;2.90;;;25.80;99.90;;;;;;6190675;23;20031;-87
2022/08/17 13:08:12;;;;;;;3.05;2.83;;;25.50;99.90;;;;;;6170973;23;20023;-87
2022/08/17 13:10:39;;;;;;;3.10;2.80;;;25.40;99.90;;;;;;6170408;23;20023;-87
2022/08/17 13:13:27;;;;;;;2.55;2.30;;;25.20;99.90;;;;;;6169895;23;20340;-88
2022/08/17 13:15:55;;;;;;;2.85;2.55;;;25.10;99.90;;;;;;6169808;23;20012;-89
2022/08/17 13:18:49;;;;;;;2.67;2.47;;;25.00;99.90;;;;;;6191361;23;20020;-88
2022/08/17 13:21:22;;;;;;;2.75;2.33;;;24.80;99.90;;;;;;6167683;23;20012;-87
2022/08/17 13:23:56;;;;;;;2.67;2.47;;;24.70;99.90;;;;;;6214053;23;20174;-87
2022/08/17 13:26:28;;;;;;;2.60;2.40;;;24.70;99.90;;;;;;6188630;23;20077;-88
2022/08/17 13:28:58;;;;;;;2.25;2.05;;;24.70;99.90;;;;;;6169190;23;20047;-88
2022/08/17 13:31:26;;;;;;;1.95;1.77;;;24.80;99.90;;;;;;6171911;23;20027;-88
2022/08/17 13:34:12;;;;;;;1.90;1.63;;;24.90;99.90;;;;;;6218689;23;20317;-87
2022/08/17 13:36:40;;;;;;;2.08;1.88;;;25.00;99.90;;;;;;6219821;23;20024;-90
2022/08/17 13:39:18;;;;;;;3.13;2.83;;;24.90;99.90;;;;;;6174102;23;20043;-88
2022/08/17 13:41:46;;;;;;;2.70;2.50;;;24.80;99.90;;;;;;6199586;23;20087;-87
2022/08/17 13:44:37;;;;;;;2.55;2.28;;;24.80;99.90;;;;;;6174202;23;20575;-89
2022/08/17 13:47:14;;;;;;;2.10;1.90;;;24.80;99.90;;;;;;6173780;23;20016;-87
2022/08/17 13:49:41;;;;;;;2.28;2.08;;;25.00;99.90;;;;;;6170664;23;20040;-88
2022/08/17 13:52:37;;;;;;;2.50;2.30;;;25.00;99.90;;;;;;6172249;23;20020;-89
2022/08/17 13:55:13;;;;;;;2.67;2.47;;;25.00;99.90;;;;;;6189946;23;20288;-88
2022/08/17 13:57:44;;;;;;;2.58;2.38;;;24.90;99.90;;;;;;6167480;23;20020;-87
2022/08/17 14:00:16;;;;;;;2.30;2.10;;;24.80;99.90;;;;;;6194838;23;20127;-88
2022/08/17 14:02:44;;;;;;;1.88;1.70;;;24.80;99.90;;;;;;6201218;23;20035;-92
2022/08/17 14:05:12;;;;;;;1.65;1.48;;;24.80;99.90;;;;;;6177372;23;20331;-89
2022/08/17 14:07:39;;;;;;;1.70;1.50;;;24.90;99.90;;;;;;6177951;23;20023;-90
2022/08/17 14:10:13;;;;;;;1.65;1.55;;;24.90;99.90;;;;;;6174065;23;20020;-92
2022/08/17 14:12:41;;;;;;;2.38;1.83;;;24.90;99.90;;;;;;6198307;23;20016;-93
2022/08/17 14:15:10;;;;;;;1.33;1.20;;;24.90;99.90;;;;;;6176096;23;20020;-95
2022/08/17 14:17:39;;;;;;;1.23;1.13;;;25.10;99.90;;;;;;6176861;23;20024;-93
2022/08/17 14:20:08;;;;;;;1.10;1.00;;;25.10;99.90;;;;;;6176053;23;20031;-88
2022/08/17 14:22:37;;;;;;;1.05;0.95;;;25.20;99.90;;;;;;6176437;23;20352;-92
2022/08/17 14:25:04;;;;;;;1.30;1.20;;;25.30;99.90;;;;;;6175198;23;20075;-93
2022/08/17 14:27:36;;;;;;;1.58;1.30;;;25.20;99.90;;;;;;6178080;23;20016;-91